オウル の空港の天気 - METARとTAF

オウル空港 ( EFOU / OUL ) - フィンランド Oulunsalo
飛行場実況気象(Metar)
観測時間10/23 16:20 EEST (10/23 13:20 UTC)
風向・風速北 3m/s
視程10km以上
天気現象
全天を覆う雲 雲底高度 180m
気温0℃
湿度93%
気圧1030hPa
METAREFOU 231320Z AUTO 35006KT 9999 OVC006/// M00/M01 Q1030
過去の天気等 Google飛行場航空写真 Wunderground天気予報

過去48時間のMETAR

飛行場予報(TAF)
発表時間: 10/23 14:38 EEST (10/23 11:38 UTC)
予報対象時間: 23日15時 EEST ~ 24日15時 EEST
風向・風速北北東 2m/s
視程10km以上
全天の8割程度の雲 雲底高度 400m
23日16時 EEST ~ 23日18時 EEST に徐々に
全天の8割程度の雲 雲底高度 180m
24日2時 EEST から 確率 30% で
視程1,500m
天気現象もや
全天の8割程度の雲 雲底高度 60m
24日12時 EEST ~ 24日14時 EEST に徐々に
全天の8割程度の雲 雲底高度 610m
TAF EFOU 231138Z 2312/2412 02004KT 9999 BKN013
BECMG 2313/2315 BKN006
PROB30 2323/2408 1500 BR BKN002
BECMG 2409/2411 BKN020